This is the latest recevied weather packets stored in our database for station/object KELD. If no packets are shown the sender has not sent any weather packets the latest 10 day(s).
| Time | Temp. | Humidity | Pressure | Rain* | Wind** | Luminosity | Snow |
|---|---|---|---|---|---|---|---|
| 1777965205 | 17.78° C | 77% | 1009.5 hPa | - | - | - | - |
| 1777964608 | 17.78° C | 77% | 1009.5 hPa | - | - | - | - |
| 1777964008 | 18.89° C | 72% | 1010.2 hPa | - | - | - | - |
| 1777962805 | 18.89° C | 72% | 1010.2 hPa | - | - | - | - |
| 1777962204 | 18.89° C | 72% | 1010.2 hPa | - | - | - | - |
| 1777961608 | 18.89° C | 72% | 1010.2 hPa | - | - | - | - |
| 1777961007 | 18.89° C | 72% | 1010.2 hPa | - | - | - | - |
| 1777960413 | 18.89° C | 68% | 1010.2 hPa | - | - | - | - |
| 1777959812 | 18.89° C | 68% | 1010.2 hPa | - | - | - | - |
| 1777959207 | 18.89° C | 68% | 1010.2 hPa | - | - | - | - |
| 1777958608 | 18.89° C | 68% | 1010.2 hPa | - | - | - | - |
| 1777958008 | 18.89° C | 68% | 1010.2 hPa | - | - | - | - |
| 1777957409 | 18.89° C | 68% | 1010.2 hPa | - | - | - | - |
| 1777956805 | 17.78° C | 72% | 1010.2 hPa | - | - | - | - |
| 1777956206 | 17.78° C | 72% | 1010.2 hPa | - | - | - | - |
| 1777955606 | 17.78° C | 72% | 1010.2 hPa | - | - | - | - |
| 1777955004 | 17.78° C | 72% | 1010.2 hPa | - | - | - | - |
| 1777954833 | 17.78° C | 72% | 1010.2 hPa | - | - | - | - |
| 1777954409 | 17.78° C | 72% | 1010.2 hPa | - | - | - | - |
| 1777940608 | 23.89° C | 44% | 1009.5 hPa | - | - | - | - |
| 1777940008 | 23.89° C | 44% | 1009.5 hPa | - | - | - | - |
| 1777938808 | 25.56° C | 39% | 1010.5 hPa | - | - | - | - |
| 1777934608 | 26.67° C | 36% | 1010.5 hPa | - | - | - | - |
| 1777932212 | 26.67° C | 36% | 1010.5 hPa | - | - | - | - |
| 1777931611 | 25.56° C | 39% | 1011.5 hPa | - | - | - | - |
* Rain since midnight (hover to see other rain measurements)
** Current wind speed in m/s (hover to see current wind gust speed)